Time;durP1;ratioP1;P1;durP2;ratioP2;P2;SDS_P1;SDS_P2;PMS_P1;PMS_P2;Temp;Humidity;BMP_temperature;BMP_pressure;BME280_temperature;BME280_humidity;BME280_pressure;Samples;Min_cycle;Max_cycle;Signal;HPM_P1;HPM_P2
2024/02/10 00:01:08;;;;;;;7.40;2.83;;;;;;;;;;5026968;28;20052;-65
2024/02/10 00:03:37;;;;;;;6.80;2.90;;;;;;;;;;5027036;28;20136;-63
2024/02/10 00:06:06;;;;;;;7.75;3.33;;;;;;;;;;5026958;28;20583;-67
2024/02/10 00:08:37;;;;;;;6.25;3.22;;;;;;;;;;5026729;28;20120;-62
2024/02/10 00:11:07;;;;;;;7.40;3.35;;;;;;;;;;5026285;28;20044;-70
2024/02/10 00:13:36;;;;;;;6.18;3.47;;;;;;;;;;5026700;28;20054;-60
2024/02/10 00:16:08;;;;;;;6.13;3.50;;;;;;;;;;5028017;28;20073;-68
2024/02/10 00:18:36;;;;;;;7.28;3.40;;;;;;;;;;5026851;28;20103;-62
2024/02/10 00:21:05;;;;;;;7.88;3.97;;;;;;;;;;5027033;28;20058;-68
2024/02/10 00:23:34;;;;;;;14.48;3.50;;;;;;;;;;5026819;28;20056;-63
2024/02/10 00:26:03;;;;;;;5.70;2.67;;;;;;;;;;5023779;28;20596;-62
2024/02/10 00:28:35;;;;;;;9.40;3.10;;;;;;;;;;5024346;28;20049;-64
2024/02/10 00:31:04;;;;;;;5.50;2.67;;;;;;;;;;5024130;28;20081;-65
2024/02/10 00:33:34;;;;;;;5.55;2.75;;;;;;;;;;5024233;28;20076;-66
2024/02/10 00:36:02;;;;;;;4.88;2.75;;;;;;;;;;5024627;28;20141;-64
2024/02/10 00:38:30;;;;;;;7.32;2.85;;;;;;;;;;5021995;28;20085;-67
2024/02/10 00:41:03;;;;;;;5.38;3.00;;;;;;;;;;5023474;28;20067;-64
2024/02/10 00:43:31;;;;;;;5.47;2.75;;;;;;;;;;5024192;28;20049;-68
2024/02/10 00:46:06;;;;;;;5.22;3.22;;;;;;;;;;5023384;28;20060;-72
2024/02/10 00:48:34;;;;;;;7.03;2.88;;;;;;;;;;5023690;28;20119;-66
2024/02/10 00:51:04;;;;;;;6.40;2.80;;;;;;;;;;5023048;28;20262;-63
2024/02/10 00:53:39;;;;;;;4.43;2.78;;;;;;;;;;5023151;28;20054;-65
2024/02/10 00:56:09;;;;;;;7.47;3.58;;;;;;;;;;5022712;28;20200;-65
2024/02/10 00:58:40;;;;;;;5.72;3.13;;;;;;;;;;5021860;28;20178;-62
2024/02/10 01:01:12;;;;;;;6.40;3.15;;;;;;;;;;5023143;28;20072;-63
2024/02/10 01:03:44;;;;;;;5.88;3.35;;;;;;;;;;5023551;28;20128;-64
2024/02/10 01:06:15;;;;;;;9.38;3.10;;;;;;;;;;5022811;28;20478;-65
2024/02/10 01:08:48;;;;;;;7.22;3.35;;;;;;;;;;5023134;28;20046;-64
2024/02/10 01:11:17;;;;;;;7.90;2.80;;;;;;;;;;5023110;28;20183;-63
2024/02/10 01:13:47;;;;;;;8.10;3.17;;;;;;;;;;5023445;28;20160;-62
2024/02/10 01:16:17;;;;;;;8.25;3.10;;;;;;;;;;5022663;28;20063;-67
2024/02/10 01:18:48;;;;;;;8.93;3.67;;;;;;;;;;5021380;28;20497;-63
2024/02/10 01:21:17;;;;;;;9.57;3.55;;;;;;;;;;5022234;28;20395;-67
2024/02/10 01:23:49;;;;;;;7.40;3.55;;;;;;;;;;5023119;28;20278;-64
2024/02/10 01:26:18;;;;;;;9.50;3.15;;;;;;;;;;5023240;28;20143;-62
2024/02/10 01:28:47;;;;;;;8.63;3.35;;;;;;;;;;5022109;28;20494;-62
2024/02/10 01:31:17;;;;;;;7.57;3.42;;;;;;;;;;5021882;28;20135;-63
2024/02/10 01:33:48;;;;;;;6.35;3.28;;;;;;;;;;5022461;28;20490;-71
2024/02/10 01:36:19;;;;;;;7.32;3.17;;;;;;;;;;5021837;28;20081;-70
2024/02/10 01:38:49;;;;;;;5.50;2.80;;;;;;;;;;5022570;28;20057;-70
2024/02/10 01:41:18;;;;;;;6.20;2.95;;;;;;;;;;5022507;28;20068;-63
2024/02/10 01:43:48;;;;;;;5.32;2.40;;;;;;;;;;5022175;28;20037;-64
2024/02/10 01:46:22;;;;;;;4.53;2.70;;;;;;;;;;5022868;28;20124;-65
2024/02/10 01:48:50;;;;;;;7.82;2.88;;;;;;;;;;5021003;28;20136;-62
2024/02/10 01:51:19;;;;;;;9.32;2.95;;;;;;;;;;5022477;28;20466;-62
2024/02/10 01:53:49;;;;;;;5.70;2.80;;;;;;;;;;5022800;28;20053;-67
2024/02/10 01:56:17;;;;;;;3.95;2.42;;;;;;;;;;5019788;28;20721;-66
2024/02/10 01:58:46;;;;;;;5.50;2.97;;;;;;;;;;5020939;28;20395;-65
2024/02/10 02:01:15;;;;;;;5.40;2.40;;;;;;;;;;5022248;28;20041;-66
2024/02/10 02:03:46;;;;;;;5.05;2.88;;;;;;;;;;5022387;28;20133;-62
2024/02/10 02:06:17;;;;;;;5.03;2.40;;;;;;;;;;5022207;28;20088;-70
2024/02/10 02:08:47;;;;;;;5.03;2.92;;;;;;;;;;5022273;28;20042;-66
2024/02/10 02:11:17;;;;;;;7.13;2.80;;;;;;;;;;5020400;28;20053;-67
2024/02/10 02:13:45;;;;;;;6.18;2.95;;;;;;;;;;5022031;28;20115;-64
2024/02/10 02:16:14;;;;;;;6.63;3.42;;;;;;;;;;5022308;28;20077;-61
2024/02/10 02:18:43;;;;;;;6.50;2.95;;;;;;;;;;5019990;28;20107;-66
2024/02/10 02:21:14;;;;;;;6.47;3.13;;;;;;;;;;5020871;28;20057;-62
2024/02/10 02:23:44;;;;;;;8.75;3.53;;;;;;;;;;5020790;28;20499;-65
2024/02/10 02:26:12;;;;;;;5.47;2.88;;;;;;;;;;5020438;28;20162;-65
2024/02/10 02:28:42;;;;;;;5.32;3.13;;;;;;;;;;5020799;28;20050;-62
2024/02/10 02:31:13;;;;;;;7.07;3.40;;;;;;;;;;5021494;28;20422;-64
2024/02/10 02:33:42;;;;;;;4.20;2.92;;;;;;;;;;5022056;28;20499;-63
2024/02/10 02:36:10;;;;;;;4.28;2.72;;;;;;;;;;5021609;28;20544;-64
2024/02/10 02:38:39;;;;;;;8.38;3.22;;;;;;;;;;5022358;28;20451;-65
2024/02/10 02:41:09;;;;;;;8.00;3.15;;;;;;;;;;5020788;28;20155;-65
2024/02/10 02:43:37;;;;;;;6.53;3.20;;;;;;;;;;5021639;28;20049;-68
2024/02/10 02:46:06;;;;;;;6.55;3.00;;;;;;;;;;5021142;28;20048;-65
2024/02/10 02:48:37;;;;;;;4.93;3.05;;;;;;;;;;5021752;28;20042;-64
2024/02/10 02:51:07;;;;;;;5.93;2.97;;;;;;;;;;5021044;28;20060;-65
2024/02/10 02:53:36;;;;;;;5.40;3.15;;;;;;;;;;5022005;28;20053;-67
2024/02/10 02:56:04;;;;;;;6.45;3.35;;;;;;;;;;5021488;28;20445;-64
2024/02/10 02:58:34;;;;;;;8.65;2.90;;;;;;;;;;5020090;28;20131;-67
2024/02/10 03:01:04;;;;;;;9.07;3.00;;;;;;;;;;5020370;28;20123;-64
2024/02/10 03:03:33;;;;;;;4.85;2.72;;;;;;;;;;5020775;28;20349;-68
2024/02/10 03:06:01;;;;;;;5.53;3.22;;;;;;;;;;5020081;28;20099;-62
2024/02/10 03:08:30;;;;;;;5.15;2.85;;;;;;;;;;5020661;28;20057;-70
2024/02/10 03:10:59;;;;;;;5.10;2.58;;;;;;;;;;5019626;28;20406;-61
2024/02/10 03:13:28;;;;;;;5.20;2.67;;;;;;;;;;5020769;28;20099;-64
2024/02/10 03:16:00;;;;;;;3.80;2.83;;;;;;;;;;5021307;28;20041;-69
2024/02/10 03:18:28;;;;;;;4.88;2.80;;;;;;;;;;5021036;28;21222;-60
2024/02/10 03:20:57;;;;;;;3.53;2.10;;;;;;;;;;5021082;28;20070;-70
2024/02/10 03:23:27;;;;;;;7.00;3.20;;;;;;;;;;5020517;28;20313;-65
2024/02/10 03:25:56;;;;;;;6.03;3.20;;;;;;;;;;5019931;28;20111;-65
2024/02/10 03:28:25;;;;;;;6.18;3.17;;;;;;;;;;5022311;28;20965;-60
2024/02/10 03:30:53;;;;;;;5.88;3.42;;;;;;;;;;5020125;28;20056;-61
2024/02/10 03:33:23;;;;;;;10.15;3.60;;;;;;;;;;5020627;28;20042;-62
2024/02/10 03:35:54;;;;;;;7.85;3.42;;;;;;;;;;5019500;28;20045;-63
2024/02/10 03:38:22;;;;;;;4.68;3.17;;;;;;;;;;5020890;28;20063;-71
2024/02/10 03:40:51;;;;;;;6.47;3.50;;;;;;;;;;5019655;28;20049;-60
2024/02/10 03:43:26;;;;;;;4.93;2.78;;;;;;;;;;5021515;28;20490;-60
2024/02/10 03:45:54;;;;;;;6.22;2.95;;;;;;;;;;5020450;28;20049;-70
2024/02/10 03:48:24;;;;;;;5.70;2.92;;;;;;;;;;5020455;28;20577;-61
2024/02/10 03:50:53;;;;;;;8.13;3.22;;;;;;;;;;5018068;28;20056;-65
2024/02/10 03:53:24;;;;;;;5.00;3.28;;;;;;;;;;5021005;28;20065;-60
2024/02/10 03:55:53;;;;;;;7.03;3.03;;;;;;;;;;5020664;28;20053;-68
2024/02/10 03:58:24;;;;;;;6.60;3.35;;;;;;;;;;5019898;28;21330;-61
2024/02/10 04:00:53;;;;;;;6.38;2.97;;;;;;;;;;5023231;28;20073;-69
2024/02/10 04:03:22;;;;;;;4.38;2.83;;;;;;;;;;5024559;28;20038;-62
2024/02/10 04:05:52;;;;;;;7.53;3.40;;;;;;;;;;5025326;28;20050;-60
2024/02/10 04:08:20;;;;;;;8.15;2.65;;;;;;;;;;5023827;28;20069;-63
2024/02/10 04:10:48;;;;;;;6.03;3.00;;;;;;;;;;5021885;28;20045;-63
2024/02/10 04:13:17;;;;;;;7.50;3.17;;;;;;;;;;5023076;28;20053;-63
2024/02/10 04:15:45;;;;;;;7.43;3.42;;;;;;;;;;5022737;28;20057;-65
2024/02/10 04:18:14;;;;;;;4.25;3.00;;;;;;;;;;5024541;28;20095;-67
2024/02/10 04:20:44;;;;;;;3.95;2.95;;;;;;;;;;5024588;28;20060;-59
2024/02/10 04:23:14;;;;;;;6.32;3.53;;;;;;;;;;5023176;28;20041;-63
2024/02/10 04:25:42;;;;;;;9.57;3.50;;;;;;;;;;5023584;28;20809;-61
2024/02/10 04:28:10;;;;;;;6.85;3.05;;;;;;;;;;5023283;28;20045;-60
2024/02/10 04:30:39;;;;;;;5.57;3.45;;;;;;;;;;5024183;28;20452;-64
2024/02/10 04:33:08;;;;;;;6.38;2.92;;;;;;;;;;5023812;28;20103;-65
2024/02/10 04:35:37;;;;;;;5.65;3.05;;;;;;;;;;5023045;28;20573;-61
2024/02/10 04:38:08;;;;;;;7.05;3.45;;;;;;;;;;5023967;28;20053;-65
2024/02/10 04:40:38;;;;;;;8.93;3.33;;;;;;;;;;5021946;28;20057;-68
2024/02/10 04:43:07;;;;;;;4.63;3.00;;;;;;;;;;5024134;28;20045;-60
2024/02/10 04:45:36;;;;;;;6.93;3.20;;;;;;;;;;5023391;28;20060;-60
2024/02/10 04:48:07;;;;;;;10.35;3.15;;;;;;;;;;5022567;28;20139;-64
2024/02/10 04:50:36;;;;;;;5.40;3.13;;;;;;;;;;5021975;28;20052;-64
2024/02/10 04:53:06;;;;;;;4.57;2.63;;;;;;;;;;5023536;28;20099;-61
2024/02/10 04:55:41;;;;;;;5.80;3.10;;;;;;;;;;5022708;28;20123;-61
2024/02/10 04:58:12;;;;;;;4.47;3.08;;;;;;;;;;5021188;28;20131;-63
2024/02/10 05:00:42;;;;;;;9.02;3.60;;;;;;;;;;5019763;28;20735;-63
2024/02/10 05:03:10;;;;;;;5.35;3.00;;;;;;;;;;5022128;28;20050;-65
2024/02/10 05:05:39;;;;;;;5.53;3.13;;;;;;;;;;5018533;28;20303;-64
2024/02/10 05:08:12;;;;;;;8.00;3.63;;;;;;;;;;5018585;28;20045;-69
2024/02/10 05:10:41;;;;;;;8.07;3.60;;;;;;;;;;5016929;28;20056;-67
2024/02/10 05:13:09;;;;;;;10.32;3.30;;;;;;;;;;5018306;28;20134;-66
2024/02/10 05:15:39;;;;;;;6.43;3.42;;;;;;;;;;5017350;28;20061;-68
2024/02/10 05:18:08;;;;;;;5.93;3.05;;;;;;;;;;5019648;28;20056;-61
2024/02/10 05:20:37;;;;;;;6.55;3.60;;;;;;;;;;5019674;28;20215;-68
2024/02/10 05:23:05;;;;;;;7.85;3.28;;;;;;;;;;5018685;28;20041;-64
2024/02/10 05:25:35;;;;;;;4.57;2.95;;;;;;;;;;5018399;28;20052;-64
2024/02/10 05:28:05;;;;;;;6.40;2.67;;;;;;;;;;5019036;28;20726;-64
2024/02/10 05:30:33;;;;;;;4.65;2.83;;;;;;;;;;5018171;28;20053;-65
2024/02/10 05:33:04;;;;;;;5.05;3.05;;;;;;;;;;5018761;28;20174;-61
2024/02/10 05:35:33;;;;;;;10.57;3.40;;;;;;;;;;5018540;28;20068;-68
2024/02/10 05:38:03;;;;;;;3.90;2.90;;;;;;;;;;5018960;28;20053;-62
2024/02/10 05:40:32;;;;;;;6.38;3.50;;;;;;;;;;5017501;28;20532;-65
2024/02/10 05:43:04;;;;;;;7.35;3.45;;;;;;;;;;5019999;28;20445;-64
2024/02/10 05:45:34;;;;;;;3.95;2.70;;;;;;;;;;5018141;28;20512;-65
2024/02/10 05:48:05;;;;;;;5.80;3.30;;;;;;;;;;5016919;28;20049;-69
2024/02/10 05:50:36;;;;;;;5.07;2.72;;;;;;;;;;5017633;28;20060;-62
2024/02/10 05:53:06;;;;;;;9.20;3.25;;;;;;;;;;5018348;28;20064;-67
2024/02/10 05:55:34;;;;;;;5.20;2.85;;;;;;;;;;5018513;28;20054;-60
2024/02/10 05:58:03;;;;;;;4.32;2.63;;;;;;;;;;5016778;28;20128;-66
2024/02/10 06:00:38;;;;;;;7.47;3.33;;;;;;;;;;5017022;28;20160;-66
2024/02/10 06:03:08;;;;;;;4.90;2.90;;;;;;;;;;5019573;28;20049;-68
2024/02/10 06:05:38;;;;;;;6.18;3.00;;;;;;;;;;5018454;28;20053;-61
2024/02/10 06:08:10;;;;;;;8.57;3.22;;;;;;;;;;5019172;28;20545;-60
2024/02/10 06:10:39;;;;;;;6.10;2.70;;;;;;;;;;5017065;28;20476;-65
2024/02/10 06:13:07;;;;;;;6.05;2.92;;;;;;;;;;5017412;28;20049;-71
2024/02/10 06:15:36;;;;;;;5.40;2.90;;;;;;;;;;5017640;28;20140;-64
2024/02/10 06:18:04;;;;;;;5.93;3.50;;;;;;;;;;5016083;28;21535;-61
2024/02/10 06:20:36;;;;;;;4.25;3.03;;;;;;;;;;5017047;28;20654;-66
2024/02/10 06:23:05;;;;;;;6.70;2.92;;;;;;;;;;5018808;28;20148;-64
2024/02/10 06:25:33;;;;;;;5.82;3.00;;;;;;;;;;5019366;28;20487;-67
2024/02/10 06:28:02;;;;;;;5.30;3.10;;;;;;;;;;5016450;28;20379;-65
2024/02/10 06:30:33;;;;;;;4.70;3.08;;;;;;;;;;5017138;28;20057;-65
2024/02/10 06:33:04;;;;;;;5.85;2.72;;;;;;;;;;5016634;28;20096;-61
2024/02/10 06:35:36;;;;;;;4.15;2.55;;;;;;;;;;5021941;28;20053;-63
2024/02/10 06:38:05;;;;;;;5.35;2.63;;;;;;;;;;5028990;28;20057;-62
2024/02/10 06:40:38;;;;;;;4.53;2.90;;;;;;;;;;5026669;28;20049;-62
2024/02/10 06:43:12;;;;;;;6.65;3.42;;;;;;;;;;5028046;28;20045;-61
2024/02/10 06:45:41;;;;;;;7.55;2.80;;;;;;;;;;5028779;28;20140;-63
2024/02/10 06:48:11;;;;;;;5.15;2.72;;;;;;;;;;5026319;28;20441;-63
2024/02/10 06:50:43;;;;;;;4.47;3.30;;;;;;;;;;5027426;28;20502;-61
2024/02/10 06:53:14;;;;;;;6.70;2.80;;;;;;;;;;5027762;28;20057;-61
2024/02/10 06:55:43;;;;;;;4.93;3.15;;;;;;;;;;5028599;28;20045;-62
2024/02/10 06:58:11;;;;;;;6.30;2.88;;;;;;;;;;5027537;28;20041;-68
2024/02/10 07:00:40;;;;;;;5.50;2.92;;;;;;;;;;5026300;28;20045;-63
2024/02/10 07:03:09;;;;;;;5.25;2.85;;;;;;;;;;5029105;28;20403;-65
2024/02/10 07:05:38;;;;;;;3.92;2.72;;;;;;;;;;5028204;28;20076;-64
2024/02/10 07:08:11;;;;;;;6.47;2.60;;;;;;;;;;5031024;28;20105;-61
2024/02/10 07:10:40;;;;;;;8.50;2.90;;;;;;;;;;5026699;28;20487;-61
2024/02/10 07:13:08;;;;;;;4.32;2.70;;;;;;;;;;5019355;28;20461;-64
2024/02/10 07:15:37;;;;;;;4.20;2.83;;;;;;;;;;5027485;28;20107;-63
2024/02/10 07:18:07;;;;;;;4.70;3.00;;;;;;;;;;5027789;28;20052;-65
2024/02/10 07:20:36;;;;;;;4.72;2.60;;;;;;;;;;5027294;28;20554;-64
2024/02/10 07:23:05;;;;;;;5.53;2.63;;;;;;;;;;5021288;28;20049;-61
2024/02/10 07:25:37;;;;;;;4.30;2.47;;;;;;;;;;5030015;28;20104;-62
2024/02/10 07:28:08;;;;;;;6.43;3.38;;;;;;;;;;5024412;28;20046;-60
2024/02/10 07:30:37;;;;;;;5.60;2.90;;;;;;;;;;5030430;28;20084;-60
2024/02/10 07:33:09;;;;;;;6.70;3.17;;;;;;;;;;5027269;28;20103;-63
2024/02/10 07:35:43;;;;;;;5.30;2.97;;;;;;;;;;5029687;28;20135;-62
2024/02/10 07:38:11;;;;;;;3.92;2.63;;;;;;;;;;5028514;28;20045;-61
2024/02/10 07:40:41;;;;;;;4.45;2.50;;;;;;;;;;5028239;28;20160;-61
2024/02/10 07:43:15;;;;;;;4.22;2.40;;;;;;;;;;5027742;28;20100;-60
2024/02/10 07:45:44;;;;;;;6.57;2.72;;;;;;;;;;5029359;28;20483;-61
2024/02/10 07:48:12;;;;;;;7.45;2.63;;;;;;;;;;5029265;28;20379;-65
2024/02/10 07:50:41;;;;;;;5.45;2.53;;;;;;;;;;5027817;28;20052;-63
2024/02/10 07:53:12;;;;;;;5.28;2.63;;;;;;;;;;5019223;28;20052;-61
2024/02/10 07:55:46;;;;;;;5.43;3.00;;;;;;;;;;5030760;28;20045;-63
2024/02/10 07:58:15;;;;;;;5.57;2.75;;;;;;;;;;5028294;28;20049;-63
2024/02/10 08:00:46;;;;;;;6.57;3.45;;;;;;;;;;5029342;28;20452;-64
2024/02/10 08:03:15;;;;;;;5.88;2.78;;;;;;;;;;5029525;28;20077;-62
2024/02/10 08:05:51;;;;;;;6.40;3.15;;;;;;;;;;5028716;28;20049;-62
2024/02/10 08:08:23;;;;;;;6.95;2.92;;;;;;;;;;5029222;28;20049;-64
2024/02/10 08:10:53;;;;;;;6.40;2.90;;;;;;;;;;5027489;28;20056;-61
2024/02/10 08:13:24;;;;;;;4.75;2.92;;;;;;;;;;5028877;28;20072;-63
2024/02/10 08:15:54;;;;;;;5.53;2.72;;;;;;;;;;5032497;28;20045;-62
2024/02/10 08:18:23;;;;;;;7.03;3.55;;;;;;;;;;5033394;28;20045;-61
2024/02/10 08:20:53;;;;;;;5.93;3.30;;;;;;;;;;5028518;28;20485;-62
2024/02/10 08:23:23;;;;;;;6.22;3.85;;;;;;;;;;5024555;28;20048;-63
2024/02/10 08:25:54;;;;;;;5.22;3.08;;;;;;;;;;5032256;28;20072;-62
2024/02/10 08:28:23;;;;;;;5.95;3.00;;;;;;;;;;5025615;28;20048;-62
2024/02/10 08:30:53;;;;;;;8.55;3.50;;;;;;;;;;5038461;28;20042;-62
2024/02/10 08:33:22;;;;;;;4.13;3.03;;;;;;;;;;5028611;28;20044;-62
2024/02/10 08:35:50;;;;;;;5.78;3.53;;;;;;;;;;5035173;28;20277;-61
2024/02/10 08:38:21;;;;;;;6.75;3.78;;;;;;;;;;5030796;28;20343;-61
2024/02/10 08:40:50;;;;;;;5.57;3.65;;;;;;;;;;5029323;28;20049;-60
2024/02/10 08:43:20;;;;;;;7.55;3.13;;;;;;;;;;5028489;28;20095;-60
2024/02/10 08:45:48;;;;;;;6.70;3.42;;;;;;;;;;5028807;28;20145;-63
2024/02/10 08:48:17;;;;;;;5.65;3.10;;;;;;;;;;5029653;28;20481;-64
2024/02/10 08:50:47;;;;;;;6.85;3.38;;;;;;;;;;5029608;28;20570;-61
2024/02/10 08:53:16;;;;;;;9.45;3.47;;;;;;;;;;5029504;28;20041;-60
2024/02/10 08:55:45;;;;;;;6.78;3.60;;;;;;;;;;5031340;28;20045;-60
2024/02/10 08:58:15;;;;;;;6.65;3.53;;;;;;;;;;5030590;28;20057;-60
2024/02/10 09:00:46;;;;;;;11.43;4.22;;;;;;;;;;5029148;28;20477;-60
2024/02/10 09:03:15;;;;;;;4.28;2.90;;;;;;;;;;5017105;28;20065;-63
2024/02/10 09:05:43;;;;;;;5.20;3.35;;;;;;;;;;5022670;28;20363;-66
2024/02/10 09:08:11;;;;;;;7.22;3.58;;;;;;;;;;5023809;28;20041;-61
2024/02/10 09:10:40;;;;;;;6.38;3.20;;;;;;;;;;5020019;28;20049;-66
2024/02/10 09:13:09;;;;;;;4.70;3.15;;;;;;;;;;5021606;28;20393;-62
2024/02/10 09:15:37;;;;;;;6.53;3.35;;;;;;;;;;5029751;28;20045;-62
2024/02/10 09:18:07;;;;;;;5.85;3.40;;;;;;;;;;5024935;28;20197;-62
2024/02/10 09:20:36;;;;;;;7.63;4.00;;;;;;;;;;5028517;28;20061;-60
2024/02/10 09:23:04;;;;;;;5.05;3.45;;;;;;;;;;5025150;28;20049;-62
2024/02/10 09:25:36;;;;;;;4.72;3.13;;;;;;;;;;5028778;28;20046;-63
2024/02/10 09:28:05;;;;;;;7.82;3.80;;;;;;;;;;5030379;28;20077;-63
2024/02/10 09:30:35;;;;;;;6.10;3.50;;;;;;;;;;5027624;28;20057;-63
2024/02/10 09:33:04;;;;;;;6.18;3.33;;;;;;;;;;5028123;28;20076;-62
2024/02/10 09:35:39;;;;;;;5.05;3.60;;;;;;;;;;5028243;28;20049;-62
2024/02/10 09:38:12;;;;;;;6.35;3.40;;;;;;;;;;5025755;28;20056;-63
2024/02/10 09:40:41;;;;;;;7.72;4.10;;;;;;;;;;5028510;28;20140;-63
2024/02/10 09:43:10;;;;;;;8.38;3.55;;;;;;;;;;5026054;28;20131;-67
2024/02/10 09:45:41;;;;;;;5.07;3.28;;;;;;;;;;5030371;28;20049;-62
2024/02/10 09:48:11;;;;;;;5.18;3.03;;;;;;;;;;5030017;28;20595;-64
2024/02/10 09:50:41;;;;;;;10.05;3.85;;;;;;;;;;5029857;28;20125;-64
2024/02/10 09:53:10;;;;;;;5.05;3.63;;;;;;;;;;5028619;28;20046;-66
2024/02/10 09:55:38;;;;;;;5.82;3.25;;;;;;;;;;5030823;28;20099;-63
2024/02/10 09:58:07;;;;;;;5.85;3.53;;;;;;;;;;5028985;28;20037;-62
2024/02/10 10:00:37;;;;;;;7.05;3.38;;;;;;;;;;5022724;28;20049;-64
2024/02/10 10:03:06;;;;;;;7.60;3.42;;;;;;;;;;5029896;28;20048;-63
2024/02/10 10:05:42;;;;;;;4.97;3.35;;;;;;;;;;5027624;28;20057;-65
2024/02/10 10:08:12;;;;;;;6.00;3.28;;;;;;;;;;5030417;28;20037;-63
2024/02/10 10:10:41;;;;;;;5.03;3.10;;;;;;;;;;5030030;28;20111;-65
2024/02/10 10:13:10;;;;;;;7.13;3.67;;;;;;;;;;5029282;28;20545;-64
2024/02/10 10:15:39;;;;;;;5.13;3.40;;;;;;;;;;5028165;28;20136;-64
2024/02/10 10:18:14;;;;;;;9.05;3.58;;;;;;;;;;5022670;28;20486;-66
2024/02/10 10:20:46;;;;;;;6.07;3.50;;;;;;;;;;5022835;28;20048;-64
2024/02/10 10:23:17;;;;;;;8.93;4.10;;;;;;;;;;5028432;28;20055;-64
2024/02/10 10:25:46;;;;;;;6.47;3.40;;;;;;;;;;5028561;28;20048;-64
2024/02/10 10:28:16;;;;;;;8.80;4.07;;;;;;;;;;5028295;28;20057;-64
2024/02/10 10:30:45;;;;;;;7.93;4.15;;;;;;;;;;5029851;28;20049;-63
2024/02/10 10:33:13;;;;;;;7.70;4.25;;;;;;;;;;5029486;28;20041;-63
2024/02/10 10:35:44;;;;;;;6.28;3.83;;;;;;;;;;5029948;28;20057;-65
2024/02/10 10:38:13;;;;;;;5.00;3.47;;;;;;;;;;5028709;28;20045;-64
2024/02/10 10:40:43;;;;;;;4.75;3.50;;;;;;;;;;5027863;28;20560;-65
2024/02/10 10:43:12;;;;;;;5.18;3.40;;;;;;;;;;5028696;28;20073;-62
2024/02/10 10:45:44;;;;;;;4.88;2.92;;;;;;;;;;5025085;28;20045;-64
2024/02/10 10:48:13;;;;;;;6.90;3.53;;;;;;;;;;5019465;28;20096;-71
2024/02/10 10:50:42;;;;;;;6.40;3.72;;;;;;;;;;5025768;28;20457;-62
2024/02/10 10:53:11;;;;;;;6.32;3.30;;;;;;;;;;5023419;28;20037;-63
2024/02/10 10:55:43;;;;;;;5.13;3.65;;;;;;;;;;5038347;28;20045;-61
2024/02/10 10:58:16;;;;;;;3.97;3.10;;;;;;;;;;5026227;28;20123;-61
2024/02/10 11:00:46;;;;;;;5.20;3.00;;;;;;;;;;5024802;28;20477;-64
2024/02/10 11:03:16;;;;;;;5.50;3.05;;;;;;;;;;5025674;28;20073;-63
2024/02/10 11:05:50;;;;;;;6.93;3.40;;;;;;;;;;5024292;28;20061;-62
2024/02/10 11:08:25;;;;;;;4.63;3.45;;;;;;;;;;5025184;28;20130;-61
2024/02/10 11:10:58;;;;;;;5.63;3.35;;;;;;;;;;5025222;28;20053;-63
2024/02/10 11:13:29;;;;;;;4.05;2.78;;;;;;;;;;5022659;28;20053;-61
2024/02/10 11:16:03;;;;;;;6.07;2.88;;;;;;;;;;5026350;28;20053;-64
2024/02/10 11:18:33;;;;;;;5.30;3.10;;;;;;;;;;5027544;28;20069;-61
2024/02/10 11:21:09;;;;;;;3.15;2.70;;;;;;;;;;5026552;28;20056;-61
2024/02/10 11:23:38;;;;;;;6.07;2.97;;;;;;;;;;5018208;28;20048;-62
2024/02/10 11:26:08;;;;;;;7.75;3.42;;;;;;;;;;5017327;28;20410;-67
2024/02/10 11:28:38;;;;;;;6.25;3.30;;;;;;;;;;5020912;28;20044;-61
2024/02/10 11:31:10;;;;;;;10.77;3.22;;;;;;;;;;5016203;28;20336;-62
2024/02/10 11:33:39;;;;;;;5.55;2.97;;;;;;;;;;5019140;28;20135;-69
2024/02/10 11:36:10;;;;;;;4.18;3.03;;;;;;;;;;5017097;28;20135;-61
2024/02/10 11:38:40;;;;;;;4.43;2.90;;;;;;;;;;5017056;28;20660;-63
2024/02/10 11:41:08;;;;;;;5.93;2.70;;;;;;;;;;5014740;28;20068;-63
2024/02/10 11:43:39;;;;;;;6.72;3.03;;;;;;;;;;5020451;28;20073;-61
2024/02/10 11:46:09;;;;;;;3.63;2.90;;;;;;;;;;5015326;28;20133;-62
2024/02/10 11:48:37;;;;;;;3.88;2.60;;;;;;;;;;5013154;28;20084;-65
2024/02/10 11:51:06;;;;;;;6.93;3.10;;;;;;;;;;5015628;28;20049;-70
2024/02/10 11:53:34;;;;;;;4.35;2.70;;;;;;;;;;5016292;28;20053;-63
2024/02/10 11:56:05;;;;;;;6.35;3.20;;;;;;;;;;5016921;28;20061;-63
2024/02/10 11:58:36;;;;;;;5.68;3.13;;;;;;;;;;5014391;28;20056;-64
2024/02/10 12:01:07;;;;;;;4.95;3.15;;;;;;;;;;5015376;28;20046;-62
2024/02/10 12:03:35;;;;;;;5.65;3.20;;;;;;;;;;5013931;28;20057;-68
2024/02/10 12:06:05;;;;;;;4.80;3.00;;;;;;;;;;5016757;28;20069;-60
2024/02/10 12:08:36;;;;;;;5.40;2.92;;;;;;;;;;5016660;28;20045;-64
2024/02/10 12:11:05;;;;;;;4.25;3.13;;;;;;;;;;5019056;28;20081;-63
2024/02/10 12:13:34;;;;;;;5.05;3.13;;;;;;;;;;5023434;28;20493;-61
2024/02/10 12:16:04;;;;;;;7.90;3.67;;;;;;;;;;5022093;28;20075;-64
2024/02/10 12:18:34;;;;;;;5.05;3.03;;;;;;;;;;5024657;28;20053;-62
2024/02/10 12:21:04;;;;;;;4.88;2.60;;;;;;;;;;5027513;28;20053;-62
2024/02/10 12:23:32;;;;;;;5.03;2.85;;;;;;;;;;5027421;28;20037;-65
2024/02/10 12:26:01;;;;;;;6.50;2.70;;;;;;;;;;5029172;28;20049;-62
2024/02/10 12:28:33;;;;;;;4.85;2.90;;;;;;;;;;5026577;28;20058;-62
2024/02/10 12:31:01;;;;;;;5.63;3.22;;;;;;;;;;5029864;28;20057;-65
2024/02/10 12:33:30;;;;;;;6.82;3.35;;;;;;;;;;5027654;28;20050;-62
2024/02/10 12:36:00;;;;;;;5.32;2.85;;;;;;;;;;5026086;28;20465;-64
2024/02/10 12:38:29;;;;;;;4.50;2.85;;;;;;;;;;5028152;28;20053;-63
2024/02/10 12:40:58;;;;;;;4.53;2.92;;;;;;;;;;5027123;28;20049;-66
2024/02/10 12:43:26;;;;;;;4.55;2.50;;;;;;;;;;5026882;28;20057;-61
2024/02/10 12:45:55;;;;;;;4.70;3.10;;;;;;;;;;5027606;28;20056;-64
2024/02/10 12:48:23;;;;;;;4.55;2.80;;;;;;;;;;5030721;28;20143;-64
2024/02/10 12:50:53;;;;;;;6.00;3.10;;;;;;;;;;5026313;28;20146;-66
2024/02/10 12:53:24;;;;;;;4.50;2.75;;;;;;;;;;5027350;28;20049;-65
2024/02/10 12:55:53;;;;;;;3.28;2.42;;;;;;;;;;5027139;28;20050;-64
2024/02/10 12:58:21;;;;;;;3.97;3.10;;;;;;;;;;5026002;28;20562;-61
2024/02/10 13:00:50;;;;;;;4.95;2.80;;;;;;;;;;5024001;28;20052;-69
2024/02/10 13:03:19;;;;;;;5.35;2.95;;;;;;;;;;5018982;28;20045;-67
2024/02/10 13:05:49;;;;;;;5.70;2.72;;;;;;;;;;5027497;28;20064;-63
2024/02/10 13:08:18;;;;;;;3.40;2.58;;;;;;;;;;5030521;28;20068;-64
2024/02/10 13:10:48;;;;;;;2.72;2.28;;;;;;;;;;5021151;28;20077;-65
2024/02/10 13:13:17;;;;;;;3.78;2.60;;;;;;;;;;5023897;28;20502;-64
2024/02/10 13:15:46;;;;;;;3.35;2.38;;;;;;;;;;5023494;28;20498;-63
2024/02/10 13:18:16;;;;;;;4.65;2.08;;;;;;;;;;5027804;28;20048;-62
2024/02/10 13:20:54;;;;;;;3.92;2.17;;;;;;;;;;5026535;28;20057;-61
2024/02/10 13:23:22;;;;;;;2.20;1.85;;;;;;;;;;5024999;28;20057;-62
2024/02/10 13:25:52;;;;;;;3.63;1.90;;;;;;;;;;5027473;28;20127;-61
2024/02/10 13:28:20;;;;;;;3.13;1.65;;;;;;;;;;5028201;28;20548;-65
2024/02/10 13:30:49;;;;;;;4.90;1.95;;;;;;;;;;5026561;28;20301;-68
2024/02/10 13:33:17;;;;;;;3.90;1.80;;;;;;;;;;5022184;28;20129;-68
2024/02/10 13:35:46;;;;;;;2.22;1.60;;;;;;;;;;5023299;28;20061;-64
2024/02/10 14:00:30;;;;;;;1.30;0.88;;;;;;;;;;5021763;28;20072;-61
2024/02/10 14:03:00;;;;;;;1.98;0.80;;;;;;;;;;5026952;28;20055;-65
2024/02/10 14:05:54;;;;;;;1.45;0.77;;;;;;;;;;5026681;28;20065;-63
2024/02/10 14:08:41;;;;;;;3.90;1.10;;;;;;;;;;5026530;28;20053;-61
2024/02/10 14:11:19;;;;;;;2.05;0.85;;;;;;;;;;5001757;28;20131;-70
2024/02/10 14:13:53;;;;;;;1.40;0.70;;;;;;;;;;4994416;28;22108;-62
2024/02/10 14:16:27;;;;;;;1.40;0.90;;;;;;;;;;5017695;28;20461;-62
2024/02/10 14:18:59;;;;;;;0.85;0.75;;;;;;;;;;5023135;28;20449;-62
2024/02/10 14:21:34;;;;;;;0.88;0.73;;;;;;;;;;5017872;28;20054;-65
2024/02/10 14:24:05;;;;;;;2.42;0.60;;;;;;;;;;5023612;28;20429;-66
2024/02/10 14:26:39;;;;;;;1.00;0.70;;;;;;;;;;5019324;28;20060;-63
2024/02/10 14:29:19;;;;;;;0.80;0.70;;;;;;;;;;5022802;28;20045;-62
2024/02/10 14:31:51;;;;;;;0.95;0.85;;;;;;;;;;5022958;28;20049;-65
2024/02/10 14:34:36;;;;;;;0.75;0.68;;;;;;;;;;5023158;28;20041;-64
2024/02/10 14:37:26;;;;;;;0.65;0.65;;;;;;;;;;5024925;28;20132;-61
2024/02/10 14:39:56;;;;;;;2.22;0.50;;;;;;;;;;5023506;28;20541;-61
2024/02/10 14:42:25;;;;;;;0.90;0.80;;;;;;;;;;5024933;28;20057;-61
2024/02/10 14:44:55;;;;;;;0.90;0.70;;;;;;;;;;5025521;28;20050;-63
2024/02/10 14:47:25;;;;;;;0.98;0.80;;;;;;;;;;5022701;28;20095;-61
2024/02/10 14:49:54;;;;;;;1.35;0.70;;;;;;;;;;5026794;28;20521;-63
2024/02/10 14:52:23;;;;;;;1.27;0.80;;;;;;;;;;5023049;28;20057;-60
2024/02/10 14:54:55;;;;;;;1.20;0.90;;;;;;;;;;5024698;28;20046;-66
2024/02/10 14:57:24;;;;;;;1.02;0.90;;;;;;;;;;5024928;28;20128;-63
2024/02/10 14:59:53;;;;;;;1.13;0.80;;;;;;;;;;5023700;28;20526;-61
2024/02/10 15:02:26;;;;;;;1.15;0.80;;;;;;;;;;5024181;28;20045;-61
2024/02/10 15:04:55;;;;;;;1.10;0.70;;;;;;;;;;5024744;28;20046;-62
2024/02/10 15:07:24;;;;;;;1.10;0.65;;;;;;;;;;5025905;28;20652;-62
2024/02/10 15:09:52;;;;;;;1.33;0.90;;;;;;;;;;5021700;28;20053;-62
2024/02/10 15:12:21;;;;;;;1.15;0.88;;;;;;;;;;5023470;28;20049;-62
2024/02/10 15:14:49;;;;;;;1.00;0.80;;;;;;;;;;5023179;28;21053;-63
2024/02/10 15:17:20;;;;;;;0.85;0.70;;;;;;;;;;5023822;28;20045;-63
2024/02/10 15:19:50;;;;;;;0.90;0.85;;;;;;;;;;5022519;28;20084;-65
2024/02/10 15:22:19;;;;;;;1.10;0.80;;;;;;;;;;5017754;28;20164;-66